Pagina principale
METAR-TAF:

METAR-TAF

Aeroporti :

Aeroporto di Christchurch

Christchurch, Nuova Zelanda

latitudine: 43-29S, longitudine: 172-33E, altezza: 38 m

Osservazione

Il bollettino è stato emesso 43 minuti fa, alle 09:00 UTC
Vento 3 kt da sud/sud-ovest
Temperature 13°C
Umidità 72%
Pressione 1014 hPa
Visibilità 10 km o più

METAR: NZCH 170900Z AUTO 20003KT 9999 NCD 13/08 Q1014 NOSIG

Ora: 22:43 (09:43 UTC)

Previsione

Il bollettino è stato emesso 4 ore e 32 minuti fa, alle 05:11 UTC
Previsione valida dal 17 alle 06 UTC al 18 alle 06 UTC
Vento 2 kt da direzioni variabili
Visibilità 10 km o più
Poco nuvoloso ad un'altezza di 3000 ft
A partire da 17 alle 1800 UTC
Vento 12 kt da sud-ovest
Visibilità 10 km o più
Nubi sparse ad un'altezza di 3000 ft
Nuvoloso ad un'altezza di 5000 ft
pioggia debole

TAF: NZCH 170511Z 1706/1806 VRB02KT 9999 FEW030 FM171800 22012KT 9999 -RA SCT030 BKN050

Osservazioni e previsioni meteorologiche di più di 4000 aeroporti (messaggi METAR e TAF).

Le stazioni disponibili sono rappresentate dai dischi gialli e rossi sulla carta.

Puntare il mouse per vedere il nome della stazione.

Clicca sopra per visualizzare le osservazioni e previsioni meteorologiche.

Per cambiare la mappa : fare clic sui pulsanti verdi con una croce nera per ingrandire, il pulsante verde con un trattino per diminuire, o sulla freccia verde per le mappe adiacenti.


METAR-TAF: